sensor_id;sensor_type;location;lat;lon;timestamp;temperature;humidity
6462;DHT22;3264;42.862;25.098;2024-03-02T00:01:19;10.80;90.30
6462;DHT22;3264;42.862;25.098;2024-03-02T00:03:48;10.80;90.30
6462;DHT22;3264;42.862;25.098;2024-03-02T00:06:22;10.70;90.30
6462;DHT22;3264;42.862;25.098;2024-03-02T00:08:50;10.60;90.60
6462;DHT22;3264;42.862;25.098;2024-03-02T00:11:20;10.50;90.90
6462;DHT22;3264;42.862;25.098;2024-03-02T00:13:49;10.50;91.10
6462;DHT22;3264;42.862;25.098;2024-03-02T00:16:27;10.50;91.20
6462;DHT22;3264;42.862;25.098;2024-03-02T00:18:59;10.50;91.30
6462;DHT22;3264;42.862;25.098;2024-03-02T00:21:30;10.40;91.40
6462;DHT22;3264;42.862;25.098;2024-03-02T00:24:19;10.40;91.60
6462;DHT22;3264;42.862;25.098;2024-03-02T00:26:56;10.40;91.60
6462;DHT22;3264;42.862;25.098;2024-03-02T00:29:23;10.40;91.90
6462;DHT22;3264;42.862;25.098;2024-03-02T00:31:52;10.50;92.00
6462;DHT22;3264;42.862;25.098;2024-03-02T00:34:21;10.50;91.90
6462;DHT22;3264;42.862;25.098;2024-03-02T00:36:51;10.50;92.00
6462;DHT22;3264;42.862;25.098;2024-03-02T00:39:19;10.40;92.00
6462;DHT22;3264;42.862;25.098;2024-03-02T00:41:46;10.40;92.00
6462;DHT22;3264;42.862;25.098;2024-03-02T00:44:29;10.30;92.10
6462;DHT22;3264;42.862;25.098;2024-03-02T00:47:02;10.30;92.50
6462;DHT22;3264;42.862;25.098;2024-03-02T00:49:30;10.30;92.70
6462;DHT22;3264;42.862;25.098;2024-03-02T00:51:59;10.30;92.50
6462;DHT22;3264;42.862;25.098;2024-03-02T00:54:28;10.40;92.50
6462;DHT22;3264;42.862;25.098;2024-03-02T00:56:58;10.40;92.40
6462;DHT22;3264;42.862;25.098;2024-03-02T00:59:29;10.40;92.40
6462;DHT22;3264;42.862;25.098;2024-03-02T01:01:58;10.40;92.40
6462;DHT22;3264;42.862;25.098;2024-03-02T01:04:27;10.40;92.50
6462;DHT22;3264;42.862;25.098;2024-03-02T01:06:54;10.30;92.50
6462;DHT22;3264;42.862;25.098;2024-03-02T01:09:23;10.30;92.60
6462;DHT22;3264;42.862;25.098;2024-03-02T01:11:51;10.30;92.60
6462;DHT22;3264;42.862;25.098;2024-03-02T01:14:20;10.30;92.60
6462;DHT22;3264;42.862;25.098;2024-03-02T01:16:50;10.30;92.80
6462;DHT22;3264;42.862;25.098;2024-03-02T01:19:21;10.00;93.20
6462;DHT22;3264;42.862;25.098;2024-03-02T01:21:50;10.00;93.70
6462;DHT22;3264;42.862;25.098;2024-03-02T01:24:18;10.00;93.80
6462;DHT22;3264;42.862;25.098;2024-03-02T01:26:47;10.10;93.90
6462;DHT22;3264;42.862;25.098;2024-03-02T01:29:15;10.20;93.80
6462;DHT22;3264;42.862;25.098;2024-03-02T01:31:43;10.20;93.70
6462;DHT22;3264;42.862;25.098;2024-03-02T01:34:13;10.30;93.70
6462;DHT22;3264;42.862;25.098;2024-03-02T01:36:41;10.30;93.60
6462;DHT22;3264;42.862;25.098;2024-03-02T01:39:09;10.30;93.50
6462;DHT22;3264;42.862;25.098;2024-03-02T01:41:37;10.30;93.60
6462;DHT22;3264;42.862;25.098;2024-03-02T01:44:06;10.30;93.50
6462;DHT22;3264;42.862;25.098;2024-03-02T01:46:34;10.30;93.50
6462;DHT22;3264;42.862;25.098;2024-03-02T01:49:02;10.30;93.80
6462;DHT22;3264;42.862;25.098;2024-03-02T01:51:32;10.30;93.60
6462;DHT22;3264;42.862;25.098;2024-03-02T01:54:01;10.30;93.60
6462;DHT22;3264;42.862;25.098;2024-03-02T01:56:29;10.20;93.60
6462;DHT22;3264;42.862;25.098;2024-03-02T01:58:58;10.20;93.70
6462;DHT22;3264;42.862;25.098;2024-03-02T02:01:26;10.30;93.70
6462;DHT22;3264;42.862;25.098;2024-03-02T02:03:55;10.20;93.70
6462;DHT22;3264;42.862;25.098;2024-03-02T02:06:24;10.30;93.70
6462;DHT22;3264;42.862;25.098;2024-03-02T02:08:55;10.30;93.80
6462;DHT22;3264;42.862;25.098;2024-03-02T02:11:24;10.30;93.80
6462;DHT22;3264;42.862;25.098;2024-03-02T02:13:53;10.20;93.80
6462;DHT22;3264;42.862;25.098;2024-03-02T02:16:21;10.10;94.10
6462;DHT22;3264;42.862;25.098;2024-03-02T02:18:50;10.10;94.30
6462;DHT22;3264;42.862;25.098;2024-03-02T02:23:47;10.10;94.40
6462;DHT22;3264;42.862;25.098;2024-03-02T02:26:17;10.10;94.50
6462;DHT22;3264;42.862;25.098;2024-03-02T02:28:45;10.10;94.60
6462;DHT22;3264;42.862;25.098;2024-03-02T02:31:14;10.10;94.70
6462;DHT22;3264;42.862;25.098;2024-03-02T02:33:43;10.00;94.80
6462;DHT22;3264;42.862;25.098;2024-03-02T02:36:11;10.00;94.80
6462;DHT22;3264;42.862;25.098;2024-03-02T02:38:44;9.90;95.70
6462;DHT22;3264;42.862;25.098;2024-03-02T02:41:14;9.90;96.00
6462;DHT22;3264;42.862;25.098;2024-03-02T02:43:43;9.90;96.00
6462;DHT22;3264;42.862;25.098;2024-03-02T02:46:11;9.90;95.80
6462;DHT22;3264;42.862;25.098;2024-03-02T02:48:40;9.90;95.80
6462;DHT22;3264;42.862;25.098;2024-03-02T02:51:08;10.00;95.30
6462;DHT22;3264;42.862;25.098;2024-03-02T02:53:37;10.00;95.20
6462;DHT22;3264;42.862;25.098;2024-03-02T02:56:07;10.00;95.20
6462;DHT22;3264;42.862;25.098;2024-03-02T02:58:36;10.00;95.20
6462;DHT22;3264;42.862;25.098;2024-03-02T03:01:04;9.90;95.80
6462;DHT22;3264;42.862;25.098;2024-03-02T03:03:33;9.90;96.00
6462;DHT22;3264;42.862;25.098;2024-03-02T03:06:01;10.00;95.50
6462;DHT22;3264;42.862;25.098;2024-03-02T03:08:29;10.00;95.40
6462;DHT22;3264;42.862;25.098;2024-03-02T03:10:58;10.00;95.30
6462;DHT22;3264;42.862;25.098;2024-03-02T03:13:25;10.00;95.30
6462;DHT22;3264;42.862;25.098;2024-03-02T03:15:55;10.00;95.50
6462;DHT22;3264;42.862;25.098;2024-03-02T03:18:26;9.90;96.20
6462;DHT22;3264;42.862;25.098;2024-03-02T03:20:55;9.80;96.60
6462;DHT22;3264;42.862;25.098;2024-03-02T03:23:23;9.80;96.80
6462;DHT22;3264;42.862;25.098;2024-03-02T03:25:51;9.80;96.80
6462;DHT22;3264;42.862;25.098;2024-03-02T03:28:37;9.80;96.90
6462;DHT22;3264;42.862;25.098;2024-03-02T03:31:06;9.90;96.90
6462;DHT22;3264;42.862;25.098;2024-03-02T03:33:35;9.90;96.80
6462;DHT22;3264;42.862;25.098;2024-03-02T03:36:04;9.90;96.70
6462;DHT22;3264;42.862;25.098;2024-03-02T03:38:31;10.00;96.10
6462;DHT22;3264;42.862;25.098;2024-03-02T03:41:00;10.00;96.00
6462;DHT22;3264;42.862;25.098;2024-03-02T03:43:29;10.00;95.90
6462;DHT22;3264;42.862;25.098;2024-03-02T03:45:57;10.00;95.90
6462;DHT22;3264;42.862;25.098;2024-03-02T03:48:26;9.90;96.60
6462;DHT22;3264;42.862;25.098;2024-03-02T03:50:56;9.90;96.60
6462;DHT22;3264;42.862;25.098;2024-03-02T03:53:25;9.60;97.00
6462;DHT22;3264;42.862;25.098;2024-03-02T03:55:53;9.60;97.30
6462;DHT22;3264;42.862;25.098;2024-03-02T03:58:22;9.60;97.30
6462;DHT22;3264;42.862;25.098;2024-03-02T04:00:49;9.60;97.70
6462;DHT22;3264;42.862;25.098;2024-03-02T04:03:18;9.50;98.10
6462;DHT22;3264;42.862;25.098;2024-03-02T04:05:47;9.50;98.70
6462;DHT22;3264;42.862;25.098;2024-03-02T04:08:15;9.50;99.10
6462;DHT22;3264;42.862;25.098;2024-03-02T04:10:42;9.50;99.00
6462;DHT22;3264;42.862;25.098;2024-03-02T04:13:11;9.60;98.80
6462;DHT22;3264;42.862;25.098;2024-03-02T04:15:39;9.60;98.70
6462;DHT22;3264;42.862;25.098;2024-03-02T04:18:08;9.70;98.50
6462;DHT22;3264;42.862;25.098;2024-03-02T04:20:38;9.70;98.30
6462;DHT22;3264;42.862;25.098;2024-03-02T04:23:09;9.70;98.10
6462;DHT22;3264;42.862;25.098;2024-03-02T04:25:36;9.70;98.10
6462;DHT22;3264;42.862;25.098;2024-03-02T04:28:04;9.70;98.10
6462;DHT22;3264;42.862;25.098;2024-03-02T04:30:32;9.70;98.50
6462;DHT22;3264;42.862;25.098;2024-03-02T04:33:01;9.60;98.30
6462;DHT22;3264;42.862;25.098;2024-03-02T04:35:29;9.70;98.30
6462;DHT22;3264;42.862;25.098;2024-03-02T04:37:58;9.70;98.30
6462;DHT22;3264;42.862;25.098;2024-03-02T04:40:28;9.70;98.30
6462;DHT22;3264;42.862;25.098;2024-03-02T04:42:56;9.70;98.50
6462;DHT22;3264;42.862;25.098;2024-03-02T04:45:25;9.70;98.20
6462;DHT22;3264;42.862;25.098;2024-03-02T04:47:53;9.70;98.10
6462;DHT22;3264;42.862;25.098;2024-03-02T04:50:21;9.70;98.10
6462;DHT22;3264;42.862;25.098;2024-03-02T04:52:49;9.70;98.30
6462;DHT22;3264;42.862;25.098;2024-03-02T04:55:16;9.60;98.30
6462;DHT22;3264;42.862;25.098;2024-03-02T04:58:05;9.50;98.80
6462;DHT22;3264;42.862;25.098;2024-03-02T05:00:32;9.50;99.10
6462;DHT22;3264;42.862;25.098;2024-03-02T05:03:00;9.60;99.10
6462;DHT22;3264;42.862;25.098;2024-03-02T05:05:28;9.60;99.00
6462;DHT22;3264;42.862;25.098;2024-03-02T05:07:56;9.70;98.90
6462;DHT22;3264;42.862;25.098;2024-03-02T05:10:25;9.70;98.70
6462;DHT22;3264;42.862;25.098;2024-03-02T05:12:53;9.70;98.60
6462;DHT22;3264;42.862;25.098;2024-03-02T05:15:26;9.80;98.50
6462;DHT22;3264;42.862;25.098;2024-03-02T05:17:54;9.70;98.60
6462;DHT22;3264;42.862;25.098;2024-03-02T05:20:23;9.70;98.60
6462;DHT22;3264;42.862;25.098;2024-03-02T05:22:51;9.80;98.70
6462;DHT22;3264;42.862;25.098;2024-03-02T05:25:19;9.80;98.70
6462;DHT22;3264;42.862;25.098;2024-03-02T05:27:48;9.90;98.60
6462;DHT22;3264;42.862;25.098;2024-03-02T05:30:16;9.90;98.50
6462;DHT22;3264;42.862;25.098;2024-03-02T05:32:46;9.90;98.40
6462;DHT22;3264;42.862;25.098;2024-03-02T05:35:14;9.90;98.30
6462;DHT22;3264;42.862;25.098;2024-03-02T05:37:42;10.00;97.70
6462;DHT22;3264;42.862;25.098;2024-03-02T05:40:11;10.00;97.70
6462;DHT22;3264;42.862;25.098;2024-03-02T05:42:39;10.00;98.00
6462;DHT22;3264;42.862;25.098;2024-03-02T05:45:08;10.00;97.70
6462;DHT22;3264;42.862;25.098;2024-03-02T05:47:36;10.10;97.70
6462;DHT22;3264;42.862;25.098;2024-03-02T05:50:07;10.10;97.70
6462;DHT22;3264;42.862;25.098;2024-03-02T05:52:35;10.20;97.60
6462;DHT22;3264;42.862;25.098;2024-03-02T05:55:05;10.20;97.30
6462;DHT22;3264;42.862;25.098;2024-03-02T05:57:33;10.10;97.40
6462;DHT22;3264;42.862;25.098;2024-03-02T06:00:16;10.00;97.50
6462;DHT22;3264;42.862;25.098;2024-03-02T06:02:45;10.00;97.80
6462;DHT22;3264;42.862;25.098;2024-03-02T06:05:15;10.00;97.90
6462;DHT22;3264;42.862;25.098;2024-03-02T06:07:44;10.00;97.80
6462;DHT22;3264;42.862;25.098;2024-03-02T06:10:13;10.00;98.00
6462;DHT22;3264;42.862;25.098;2024-03-02T06:12:42;10.10;98.10
6462;DHT22;3264;42.862;25.098;2024-03-02T06:15:10;10.10;97.90
6462;DHT22;3264;42.862;25.098;2024-03-02T06:17:37;10.20;97.90
6462;DHT22;3264;42.862;25.098;2024-03-02T06:20:07;10.30;97.80
6462;DHT22;3264;42.862;25.098;2024-03-02T06:22:37;10.40;97.60
6462;DHT22;3264;42.862;25.098;2024-03-02T06:25:10;10.40;97.40
6462;DHT22;3264;42.862;25.098;2024-03-02T06:27:38;10.50;97.10
6462;DHT22;3264;42.862;25.098;2024-03-02T06:30:06;10.50;97.10
6462;DHT22;3264;42.862;25.098;2024-03-02T06:32:35;10.40;97.00
6462;DHT22;3264;42.862;25.098;2024-03-02T06:35:04;10.30;97.30
6462;DHT22;3264;42.862;25.098;2024-03-02T06:37:37;10.30;97.70
6462;DHT22;3264;42.862;25.098;2024-03-02T06:40:07;10.40;97.60
6462;DHT22;3264;42.862;25.098;2024-03-02T06:42:35;10.40;97.50
6462;DHT22;3264;42.862;25.098;2024-03-02T06:45:03;10.30;97.40
6462;DHT22;3264;42.862;25.098;2024-03-02T06:47:31;10.30;98.00
6462;DHT22;3264;42.862;25.098;2024-03-02T06:49:59;10.40;98.30
6462;DHT22;3264;42.862;25.098;2024-03-02T06:52:28;10.50;98.30
6462;DHT22;3264;42.862;25.098;2024-03-02T06:54:58;10.40;98.00
6462;DHT22;3264;42.862;25.098;2024-03-02T06:57:26;10.40;98.40
6462;DHT22;3264;42.862;25.098;2024-03-02T06:59:55;10.40;98.50
6462;DHT22;3264;42.862;25.098;2024-03-02T07:02:24;10.40;98.80
6462;DHT22;3264;42.862;25.098;2024-03-02T07:04:53;10.50;99.00
6462;DHT22;3264;42.862;25.098;2024-03-02T07:07:22;10.40;98.50
6462;DHT22;3264;42.862;25.098;2024-03-02T07:09:49;10.40;98.70
6462;DHT22;3264;42.862;25.098;2024-03-02T07:12:19;10.40;99.00
6462;DHT22;3264;42.862;25.098;2024-03-02T07:14:47;10.50;99.10
6462;DHT22;3264;42.862;25.098;2024-03-02T07:17:37;10.60;99.00
6462;DHT22;3264;42.862;25.098;2024-03-02T07:20:06;10.60;98.70
6462;DHT22;3264;42.862;25.098;2024-03-02T07:22:33;10.60;98.80
6462;DHT22;3264;42.862;25.098;2024-03-02T07:25:05;10.50;98.50
6462;DHT22;3264;42.862;25.098;2024-03-02T07:27:35;10.50;98.70
6462;DHT22;3264;42.862;25.098;2024-03-02T07:30:03;10.50;98.60
6462;DHT22;3264;42.862;25.098;2024-03-02T07:32:32;10.50;99.00
6462;DHT22;3264;42.862;25.098;2024-03-02T07:35:00;10.50;99.20
6462;DHT22;3264;42.862;25.098;2024-03-02T07:37:30;10.60;99.40
6462;DHT22;3264;42.862;25.098;2024-03-02T07:39:59;10.70;99.10
6462;DHT22;3264;42.862;25.098;2024-03-02T07:42:27;10.70;99.10
6462;DHT22;3264;42.862;25.098;2024-03-02T07:44:56;10.70;98.90
6462;DHT22;3264;42.862;25.098;2024-03-02T07:47:25;10.70;98.60
6462;DHT22;3264;42.862;25.098;2024-03-02T07:49:53;10.60;98.50
6462;DHT22;3264;42.862;25.098;2024-03-02T07:52:22;10.60;98.70
6462;DHT22;3264;42.862;25.098;2024-03-02T07:54:50;10.50;98.70
6462;DHT22;3264;42.862;25.098;2024-03-02T07:57:19;10.50;99.30
6462;DHT22;3264;42.862;25.098;2024-03-02T07:59:47;10.50;99.30
6462;DHT22;3264;42.862;25.098;2024-03-02T08:02:18;10.50;99.10
6462;DHT22;3264;42.862;25.098;2024-03-02T08:04:47;10.50;99.00
6462;DHT22;3264;42.862;25.098;2024-03-02T08:07:14;10.60;99.00
6462;DHT22;3264;42.862;25.098;2024-03-02T08:09:42;10.60;99.20
6462;DHT22;3264;42.862;25.098;2024-03-02T08:12:09;10.60;99.00
6462;DHT22;3264;42.862;25.098;2024-03-02T08:14:38;10.60;99.20
6462;DHT22;3264;42.862;25.098;2024-03-02T08:17:06;10.60;99.20
6462;DHT22;3264;42.862;25.098;2024-03-02T08:19:39;10.50;99.00
6462;DHT22;3264;42.862;25.098;2024-03-02T08:22:08;10.60;99.10
6462;DHT22;3264;42.862;25.098;2024-03-02T08:24:37;10.60;98.70
6462;DHT22;3264;42.862;25.098;2024-03-02T08:27:05;10.60;98.60
6462;DHT22;3264;42.862;25.098;2024-03-02T08:29:34;10.60;98.50
6462;DHT22;3264;42.862;25.098;2024-03-02T08:32:03;10.60;98.60
6462;DHT22;3264;42.862;25.098;2024-03-02T08:34:31;10.60;98.50
6462;DHT22;3264;42.862;25.098;2024-03-02T08:37:01;10.60;98.90
6462;DHT22;3264;42.862;25.098;2024-03-02T08:39:31;10.60;98.50
6462;DHT22;3264;42.862;25.098;2024-03-02T08:41:58;10.60;98.70
6462;DHT22;3264;42.862;25.098;2024-03-02T08:44:26;10.70;98.30
6462;DHT22;3264;42.862;25.098;2024-03-02T08:46:54;10.70;98.20
6462;DHT22;3264;42.862;25.098;2024-03-02T08:49:22;10.60;98.30
6462;DHT22;3264;42.862;25.098;2024-03-02T08:51:50;10.60;98.50
6462;DHT22;3264;42.862;25.098;2024-03-02T08:54:22;10.60;98.60
6462;DHT22;3264;42.862;25.098;2024-03-02T08:56:50;10.60;99.10
6462;DHT22;3264;42.862;25.098;2024-03-02T08:59:18;10.70;98.90
6462;DHT22;3264;42.862;25.098;2024-03-02T09:01:47;10.70;98.70
6462;DHT22;3264;42.862;25.098;2024-03-02T09:04:15;10.80;98.70
6462;DHT22;3264;42.862;25.098;2024-03-02T09:06:44;10.90;98.10
6462;DHT22;3264;42.862;25.098;2024-03-02T09:09:12;10.90;98.20
6462;DHT22;3264;42.862;25.098;2024-03-02T09:11:42;11.00;98.00
6462;DHT22;3264;42.862;25.098;2024-03-02T09:14:10;11.00;97.70
6462;DHT22;3264;42.862;25.098;2024-03-02T09:16:38;10.90;97.70
6462;DHT22;3264;42.862;25.098;2024-03-02T09:19:07;10.80;97.70
6462;DHT22;3264;42.862;25.098;2024-03-02T09:21:35;10.80;98.20
6462;DHT22;3264;42.862;25.098;2024-03-02T09:24:04;10.80;97.80
6462;DHT22;3264;42.862;25.098;2024-03-02T09:26:33;10.80;97.90
6462;DHT22;3264;42.862;25.098;2024-03-02T09:29:04;10.80;98.40
6462;DHT22;3264;42.862;25.098;2024-03-02T09:31:32;10.90;98.30
6462;DHT22;3264;42.862;25.098;2024-03-02T09:33:59;10.90;98.20
6462;DHT22;3264;42.862;25.098;2024-03-02T09:36:28;11.10;98.00
6462;DHT22;3264;42.862;25.098;2024-03-02T09:38:56;11.20;97.50
6462;DHT22;3264;42.862;25.098;2024-03-02T09:41:24;11.50;97.60
6462;DHT22;3264;42.862;25.098;2024-03-02T09:43:53;11.70;96.90
6462;DHT22;3264;42.862;25.098;2024-03-02T09:46:24;11.80;96.00
6462;DHT22;3264;42.862;25.098;2024-03-02T09:48:52;12.00;95.80
6462;DHT22;3264;42.862;25.098;2024-03-02T09:51:21;12.20;95.50
6462;DHT22;3264;42.862;25.098;2024-03-02T09:53:50;12.30;95.40
6462;DHT22;3264;42.862;25.098;2024-03-02T09:56:19;12.20;94.20
6462;DHT22;3264;42.862;25.098;2024-03-02T09:58:46;12.10;94.40
6462;DHT22;3264;42.862;25.098;2024-03-02T10:01:15;12.00;94.50
6462;DHT22;3264;42.862;25.098;2024-03-02T10:03:44;12.00;95.10
6462;DHT22;3264;42.862;25.098;2024-03-02T10:06:20;12.10;94.80
6462;DHT22;3264;42.862;25.098;2024-03-02T10:08:49;12.30;94.80
6462;DHT22;3264;42.862;25.098;2024-03-02T10:11:28;12.50;94.30
6462;DHT22;3264;42.862;25.098;2024-03-02T10:14:08;12.60;94.10
6462;DHT22;3264;42.862;25.098;2024-03-02T10:16:37;12.70;93.20
6462;DHT22;3264;42.862;25.098;2024-03-02T10:19:18;12.70;93.20
6462;DHT22;3264;42.862;25.098;2024-03-02T10:21:46;12.80;92.80
6462;DHT22;3264;42.862;25.098;2024-03-02T10:24:16;12.90;92.80
6462;DHT22;3264;42.862;25.098;2024-03-02T10:26:44;13.00;92.70
6462;DHT22;3264;42.862;25.098;2024-03-02T10:29:16;13.00;92.50
6462;DHT22;3264;42.862;25.098;2024-03-02T10:31:45;13.10;92.40
6462;DHT22;3264;42.862;25.098;2024-03-02T10:34:14;13.20;92.30
6462;DHT22;3264;42.862;25.098;2024-03-02T10:36:44;13.10;92.00
6462;DHT22;3264;42.862;25.098;2024-03-02T10:39:14;13.00;92.10
6462;DHT22;3264;42.862;25.098;2024-03-02T10:41:42;12.90;92.40
6462;DHT22;3264;42.862;25.098;2024-03-02T10:44:11;12.90;92.50
6462;DHT22;3264;42.862;25.098;2024-03-02T10:46:40;12.80;92.90
6462;DHT22;3264;42.862;25.098;2024-03-02T10:49:09;12.70;92.60
6462;DHT22;3264;42.862;25.098;2024-03-02T10:51:37;12.60;93.10
6462;DHT22;3264;42.862;25.098;2024-03-02T10:54:07;12.70;93.10
6462;DHT22;3264;42.862;25.098;2024-03-02T10:56:39;12.80;93.00
6462;DHT22;3264;42.862;25.098;2024-03-02T10:59:17;12.90;93.00
6462;DHT22;3264;42.862;25.098;2024-03-02T11:01:49;13.00;92.90
6462;DHT22;3264;42.862;25.098;2024-03-02T11:04:19;13.10;92.70
6462;DHT22;3264;42.862;25.098;2024-03-02T11:06:49;13.20;92.50
6462;DHT22;3264;42.862;25.098;2024-03-02T11:09:20;13.20;92.30
6462;DHT22;3264;42.862;25.098;2024-03-02T11:11:55;13.30;92.10
6462;DHT22;3264;42.862;25.098;2024-03-02T11:14:25;13.30;92.10
6462;DHT22;3264;42.862;25.098;2024-03-02T11:16:53;13.20;92.00
6462;DHT22;3264;42.862;25.098;2024-03-02T11:19:21;13.10;91.80
6462;DHT22;3264;42.862;25.098;2024-03-02T11:21:51;13.10;92.10
6462;DHT22;3264;42.862;25.098;2024-03-02T11:24:33;13.10;92.10
6462;DHT22;3264;42.862;25.098;2024-03-02T11:27:03;13.10;92.30
6462;DHT22;3264;42.862;25.098;2024-03-02T11:29:51;13.10;92.30
6462;DHT22;3264;42.862;25.098;2024-03-02T11:32:21;13.10;92.40
6462;DHT22;3264;42.862;25.098;2024-03-02T11:34:50;13.20;92.40
6462;DHT22;3264;42.862;25.098;2024-03-02T11:37:19;13.10;91.80
6462;DHT22;3264;42.862;25.098;2024-03-02T11:39:51;13.10;91.90
6462;DHT22;3264;42.862;25.098;2024-03-02T11:42:20;12.90;91.50
6462;DHT22;3264;42.862;25.098;2024-03-02T11:44:48;12.90;91.90
6462;DHT22;3264;42.862;25.098;2024-03-02T11:47:17;13.00;92.00
6462;DHT22;3264;42.862;25.098;2024-03-02T11:49:50;13.10;92.00
6462;DHT22;3264;42.862;25.098;2024-03-02T11:52:23;13.30;91.90
6462;DHT22;3264;42.862;25.098;2024-03-02T11:54:54;13.50;91.90
6462;DHT22;3264;42.862;25.098;2024-03-02T11:57:25;13.60;91.70
6462;DHT22;3264;42.862;25.098;2024-03-02T11:59:58;13.60;91.30
6462;DHT22;3264;42.862;25.098;2024-03-02T12:02:33;13.40;91.30
6462;DHT22;3264;42.862;25.098;2024-03-02T12:05:08;13.30;91.60
6462;DHT22;3264;42.862;25.098;2024-03-02T12:07:37;13.10;91.50
6462;DHT22;3264;42.862;25.098;2024-03-02T12:10:10;12.80;92.00
6462;DHT22;3264;42.862;25.098;2024-03-02T12:12:38;12.60;92.50
6462;DHT22;3264;42.862;25.098;2024-03-02T12:15:07;12.50;92.80
6462;DHT22;3264;42.862;25.098;2024-03-02T12:17:37;12.50;93.00
6462;DHT22;3264;42.862;25.098;2024-03-02T12:20:05;12.50;93.10
6462;DHT22;3264;42.862;25.098;2024-03-02T12:22:33;12.60;93.20
6462;DHT22;3264;42.862;25.098;2024-03-02T12:25:02;12.60;93.30
6462;DHT22;3264;42.862;25.098;2024-03-02T12:27:31;12.70;92.90
6462;DHT22;3264;42.862;25.098;2024-03-02T12:30:00;12.80;92.70
6462;DHT22;3264;42.862;25.098;2024-03-02T12:32:28;12.90;92.60
6462;DHT22;3264;42.862;25.098;2024-03-02T12:34:56;12.90;92.60
6462;DHT22;3264;42.862;25.098;2024-03-02T12:37:42;12.90;92.60
6462;DHT22;3264;42.862;25.098;2024-03-02T12:40:10;12.90;92.70
6462;DHT22;3264;42.862;25.098;2024-03-02T12:42:40;12.70;92.70
6462;DHT22;3264;42.862;25.098;2024-03-02T12:45:09;12.70;92.70
6462;DHT22;3264;42.862;25.098;2024-03-02T12:47:38;12.70;92.90
6462;DHT22;3264;42.862;25.098;2024-03-02T12:50:07;12.70;92.90
6462;DHT22;3264;42.862;25.098;2024-03-02T12:52:35;12.50;93.00
6462;DHT22;3264;42.862;25.098;2024-03-02T12:55:05;12.30;93.30
6462;DHT22;3264;42.862;25.098;2024-03-02T12:57:39;12.20;93.50
6462;DHT22;3264;42.862;25.098;2024-03-02T13:00:08;12.10;93.70
6462;DHT22;3264;42.862;25.098;2024-03-02T13:02:40;12.00;93.90
6462;DHT22;3264;42.862;25.098;2024-03-02T13:05:08;12.00;94.10
6462;DHT22;3264;42.862;25.098;2024-03-02T13:07:38;12.00;94.10
6462;DHT22;3264;42.862;25.098;2024-03-02T13:10:07;12.00;94.30
6462;DHT22;3264;42.862;25.098;2024-03-02T13:12:35;12.00;94.50
6462;DHT22;3264;42.862;25.098;2024-03-02T13:15:06;12.00;94.60
6462;DHT22;3264;42.862;25.098;2024-03-02T13:17:36;12.10;94.50
6462;DHT22;3264;42.862;25.098;2024-03-02T13:20:06;12.00;94.30
6462;DHT22;3264;42.862;25.098;2024-03-02T13:22:37;12.00;94.40
6462;DHT22;3264;42.862;25.098;2024-03-02T13:25:06;11.90;94.50
6462;DHT22;3264;42.862;25.098;2024-03-02T13:27:37;11.90;94.70
6462;DHT22;3264;42.862;25.098;2024-03-02T13:30:07;11.80;94.90
6462;DHT22;3264;42.862;25.098;2024-03-02T13:32:35;11.80;95.10
6462;DHT22;3264;42.862;25.098;2024-03-02T13:35:04;11.70;95.10
6462;DHT22;3264;42.862;25.098;2024-03-02T13:37:33;11.60;95.20
6462;DHT22;3264;42.862;25.098;2024-03-02T13:40:03;11.50;95.40
6462;DHT22;3264;42.862;25.098;2024-03-02T13:42:31;11.40;95.70
6462;DHT22;3264;42.862;25.098;2024-03-02T13:45:00;11.30;96.10
6462;DHT22;3264;42.862;25.098;2024-03-02T13:47:31;11.20;96.40
6462;DHT22;3264;42.862;25.098;2024-03-02T13:49:59;11.10;96.70
6462;DHT22;3264;42.862;25.098;2024-03-02T13:52:29;11.00;97.00
6462;DHT22;3264;42.862;25.098;2024-03-02T13:54:57;10.90;97.40
6462;DHT22;3264;42.862;25.098;2024-03-02T13:57:26;10.90;97.70
6462;DHT22;3264;42.862;25.098;2024-03-02T13:59:56;10.90;97.80
6462;DHT22;3264;42.862;25.098;2024-03-02T14:02:25;10.80;98.00
6462;DHT22;3264;42.862;25.098;2024-03-02T14:04:54;10.90;98.20
6462;DHT22;3264;42.862;25.098;2024-03-02T14:07:23;10.90;98.30
6462;DHT22;3264;42.862;25.098;2024-03-02T14:09:53;11.00;98.40
6462;DHT22;3264;42.862;25.098;2024-03-02T14:12:20;11.00;98.10
6462;DHT22;3264;42.862;25.098;2024-03-02T14:14:49;10.90;97.80
6462;DHT22;3264;42.862;25.098;2024-03-02T14:17:22;10.90;98.20
6462;DHT22;3264;42.862;25.098;2024-03-02T14:19:50;10.90;98.20
6462;DHT22;3264;42.862;25.098;2024-03-02T14:22:20;10.90;98.10
6462;DHT22;3264;42.862;25.098;2024-03-02T14:24:51;10.90;98.40
6462;DHT22;3264;42.862;25.098;2024-03-02T14:27:19;10.80;98.60
6462;DHT22;3264;42.862;25.098;2024-03-02T14:29:48;10.80;98.80
6462;DHT22;3264;42.862;25.098;2024-03-02T14:32:16;10.80;98.80
6462;DHT22;3264;42.862;25.098;2024-03-02T14:34:44;10.70;99.00
6462;DHT22;3264;42.862;25.098;2024-03-02T14:37:13;10.60;99.30
6462;DHT22;3264;42.862;25.098;2024-03-02T14:39:44;10.60;99.60
6462;DHT22;3264;42.862;25.098;2024-03-02T14:42:12;10.60;99.60
6462;DHT22;3264;42.862;25.098;2024-03-02T14:44:40;10.60;99.90
6462;DHT22;3264;42.862;25.098;2024-03-02T14:47:07;10.60;99.90
6462;DHT22;3264;42.862;25.098;2024-03-02T14:49:36;10.60;99.90
6462;DHT22;3264;42.862;25.098;2024-03-02T14:52:07;10.60;99.90
6462;DHT22;3264;42.862;25.098;2024-03-02T14:54:35;10.70;99.90
6462;DHT22;3264;42.862;25.098;2024-03-02T14:57:24;10.70;99.90
6462;DHT22;3264;42.862;25.098;2024-03-02T14:59:53;10.70;99.80
6462;DHT22;3264;42.862;25.098;2024-03-02T15:02:21;10.70;99.90
6462;DHT22;3264;42.862;25.098;2024-03-02T15:04:48;10.60;99.90
6462;DHT22;3264;42.862;25.098;2024-03-02T15:07:17;10.60;99.90
6462;DHT22;3264;42.862;25.098;2024-03-02T15:09:46;10.60;99.90
6462;DHT22;3264;42.862;25.098;2024-03-02T15:12:14;10.50;99.90
6462;DHT22;3264;42.862;25.098;2024-03-02T15:14:44;10.50;99.90
6462;DHT22;3264;42.862;25.098;2024-03-02T15:17:14;10.60;99.90
6462;DHT22;3264;42.862;25.098;2024-03-02T15:19:44;10.60;99.90
6462;DHT22;3264;42.862;25.098;2024-03-02T15:22:12;10.70;99.90
6462;DHT22;3264;42.862;25.098;2024-03-02T15:24:42;10.60;99.90
6462;DHT22;3264;42.862;25.098;2024-03-02T15:27:12;10.60;99.90
6462;DHT22;3264;42.862;25.098;2024-03-02T15:29:47;10.60;99.90
6462;DHT22;3264;42.862;25.098;2024-03-02T15:32:17;10.50;99.90
6462;DHT22;3264;42.862;25.098;2024-03-02T15:34:47;10.50;99.90
6462;DHT22;3264;42.862;25.098;2024-03-02T15:37:19;10.50;99.90
6462;DHT22;3264;42.862;25.098;2024-03-02T15:39:47;10.60;99.90
6462;DHT22;3264;42.862;25.098;2024-03-02T15:42:16;10.60;99.90
6462;DHT22;3264;42.862;25.098;2024-03-02T15:44:46;10.60;99.90
6462;DHT22;3264;42.862;25.098;2024-03-02T15:47:18;10.60;99.90
6462;DHT22;3264;42.862;25.098;2024-03-02T15:49:47;10.60;99.90
6462;DHT22;3264;42.862;25.098;2024-03-02T15:52:15;10.60;99.90
6462;DHT22;3264;42.862;25.098;2024-03-02T15:54:45;10.50;99.90
6462;DHT22;3264;42.862;25.098;2024-03-02T15:57:15;10.60;99.90
6462;DHT22;3264;42.862;25.098;2024-03-02T15:59:49;10.60;99.90
6462;DHT22;3264;42.862;25.098;2024-03-02T16:02:17;10.60;99.90
6462;DHT22;3264;42.862;25.098;2024-03-02T16:04:48;10.60;99.90